Alconbury RAF, United Kingdom

7:48 AM BST on August 25, 2016 (GMT +0100)
Abbots Ripton | | Change Station

Elev 0 ft 52.38 °N, 0.17 °W | Updated 4 minutes ago

Overcast
Overcast
60.4 °F
Feels Like 60.4 °F
N
1.2
Wind Variable Wind from ESE
Gusts 3.1 mph

Today
High -- | Low -- °F
--% Chance of Precip.
Yesterday
High -- | Low -- °F
Precip. -- in
Pressure 30.01 in
Visibility 1.9 miles
Clouds Overcast 200 ft
Dew Point 60 °F
Humidity 100%
Rainfall 0.11 in
Snow Depth Not available.
6:00 AM 8:03 PM
Waning Gibbous, 49% visible
METAR EGSC 250620Z 04006KT 3000 BR OVC002 17/16 Q1016
Pressure 30.01 in
Visibility 1.9 miles
Clouds Overcast 200 ft
Dew Point 60 °F
Humidity 100%
Rainfall 0.11 in
Snow Depth Not available.
6:00 AM 8:03 PM
Waning Gibbous, 49% visible
METAR EGSC 250620Z 04006KT 3000 BR OVC002 17/16 Q1016

10-Day Weather Forecast

×

Almanac

Astronomy

Aug. 25, 2016 Rise Set
Actual Time
Civil Twilight
Nautical Twilight
Astronomical Twilight
Moon
Length of Visible Light
Length of Day
Tomorrow will be .
, % of the Moon is Illuminated

Today's Extremes

Country Highs Country Lows

Community

WunderPhotos

Upload Photos

1,934,803 photos uploaded!

WunderBlog® & News

Nearby

Air Quality

  Air Quality AQ Index Pollutant
Not available.

Snow Depth

Station Depth Elevation

Earthquake Activity

City Distance Mag. Time & Date
Minimum magnitude displayed is 2.5.

Coastal Water Temperatures

Place Temperature

Stations

Nearby Weather Stations

Station Location Temp. Windchill Dew Point Humidity Wind Precip. Elev Updated Type